createdAt,value
2023-05-05T00:00:05.091Z,10.59
2023-05-05T00:01:05.110Z,10.57
2023-05-05T00:02:05.065Z,10.56
2023-05-05T00:03:05.145Z,10.54
2023-05-05T00:04:05.074Z,10.53
2023-05-05T00:05:04.999Z,10.44
2023-05-05T00:06:04.990Z,10.42
2023-05-05T00:07:05.008Z,10.42
2023-05-05T00:08:04.985Z,10.41
2023-05-05T00:09:04.942Z,10.40
2023-05-05T00:10:04.948Z,10.37
2023-05-05T00:11:04.920Z,10.35
2023-05-05T00:12:04.912Z,10.37
2023-05-05T00:13:04.949Z,10.34
2023-05-05T00:14:04.879Z,10.34
2023-05-05T00:15:04.891Z,10.35
2023-05-05T00:16:04.859Z,10.37
2023-05-05T00:17:04.859Z,10.38
2023-05-05T00:18:04.854Z,10.40
2023-05-05T00:19:04.813Z,10.40
2023-05-05T00:20:04.915Z,10.41
2023-05-05T00:21:04.806Z,10.42
2023-05-05T00:22:04.770Z,10.41
2023-05-05T00:23:04.764Z,10.41
2023-05-05T00:24:04.753Z,10.40
2023-05-05T00:25:04.770Z,10.38
2023-05-05T00:26:04.718Z,10.35
2023-05-05T00:27:04.711Z,10.34
2023-05-05T00:28:04.697Z,10.28
2023-05-05T00:29:04.720Z,10.26
2023-05-05T00:30:04.860Z,10.26
2023-05-05T00:31:04.694Z,10.25
2023-05-05T00:32:04.645Z,10.25
2023-05-05T00:33:04.756Z,10.26
2023-05-05T00:34:04.646Z,10.31
2023-05-05T00:35:04.608Z,10.31
2023-05-05T00:36:04.582Z,10.33
2023-05-05T00:37:04.572Z,10.31
2023-05-05T00:38:04.555Z,10.33
2023-05-05T00:39:04.564Z,10.33
2023-05-05T00:40:04.622Z,10.30
2023-05-05T00:41:04.509Z,10.28
2023-05-05T00:42:04.516Z,10.31
2023-05-05T00:43:04.506Z,10.31
2023-05-05T00:44:04.506Z,10.31
2023-05-05T00:45:04.483Z,10.31
2023-05-05T00:46:04.480Z,10.33
2023-05-05T00:47:04.472Z,10.30
2023-05-05T00:48:04.496Z,10.33
2023-05-05T00:49:04.487Z,10.33
2023-05-05T00:50:04.504Z,10.26
2023-05-05T00:51:04.475Z,10.23
2023-05-05T00:52:04.423Z,10.22
2023-05-05T00:53:04.386Z,10.19
2023-05-05T00:54:04.355Z,10.19
2023-05-05T00:55:04.360Z,10.16
2023-05-05T00:56:04.354Z,10.15
2023-05-05T00:57:04.335Z,10.15
2023-05-05T00:58:04.455Z,10.15
2023-05-05T00:59:04.288Z,10.15
2023-05-05T01:00:04.292Z,10.16
2023-05-05T01:01:04.307Z,10.16
2023-05-05T01:02:04.385Z,10.16
2023-05-05T01:03:04.298Z,10.15
2023-05-05T01:04:04.237Z,10.17
2023-05-05T01:05:04.246Z,10.19
2023-05-05T01:06:04.215Z,10.20
2023-05-05T01:07:04.180Z,10.22
2023-05-05T01:08:04.191Z,10.19
2023-05-05T01:09:04.156Z,10.13
2023-05-05T01:10:17.966Z,10.13
2023-05-05T01:11:04.123Z,10.13
2023-05-05T01:12:04.108Z,10.15
2023-05-05T01:13:04.221Z,10.15
2023-05-05T01:14:04.071Z,10.13
2023-05-05T01:15:04.063Z,10.12
2023-05-05T01:16:04.067Z,10.12
2023-05-05T01:17:04.055Z,10.12
2023-05-05T01:18:04.074Z,10.10
2023-05-05T01:19:04.016Z,10.05
2023-05-05T01:20:03.994Z,10.04
2023-05-05T01:21:04.000Z,10.01
2023-05-05T01:22:03.983Z,9.99
2023-05-05T01:23:04.034Z,10.07
2023-05-05T01:24:03.949Z,10.22
2023-05-05T01:25:03.962Z,10.35
2023-05-05T01:26:03.947Z,10.35
2023-05-05T01:27:03.903Z,10.37
2023-05-05T01:28:03.896Z,10.37
2023-05-05T01:29:03.900Z,10.35
2023-05-05T01:30:03.882Z,10.31
2023-05-05T01:31:03.917Z,10.26
2023-05-05T01:32:03.890Z,10.23
2023-05-05T01:33:03.846Z,10.20
2023-05-05T01:34:03.856Z,10.19
2023-05-05T01:35:03.828Z,10.17
2023-05-05T01:36:03.797Z,10.15
2023-05-05T01:37:03.792Z,10.13
2023-05-05T01:38:03.742Z,10.10
2023-05-05T01:39:03.760Z,10.15
2023-05-05T01:40:03.747Z,10.17
2023-05-05T01:41:03.743Z,10.13
2023-05-05T01:42:03.701Z,10.12
2023-05-05T01:43:03.690Z,10.10
2023-05-05T01:44:03.697Z,10.07
2023-05-05T01:45:03.693Z,10.09
2023-05-05T01:46:03.658Z,10.09
2023-05-05T01:47:03.638Z,10.07
2023-05-05T01:48:03.749Z,10.04
2023-05-05T01:49:03.589Z,10.02
2023-05-05T01:50:03.594Z,10.01
2023-05-05T01:51:03.574Z,9.98
2023-05-05T01:52:03.592Z,9.95
2023-05-05T01:53:03.552Z,10.05
2023-05-05T01:54:03.528Z,10.13
2023-05-05T01:55:03.524Z,10.23
2023-05-05T01:56:03.573Z,10.51
2023-05-05T01:57:03.495Z,10.79
2023-05-05T01:58:03.478Z,10.78
2023-05-05T01:59:03.482Z,10.69
2023-05-05T02:00:03.470Z,10.60
2023-05-05T02:01:03.486Z,10.54
2023-05-05T02:02:03.633Z,10.42
2023-05-05T02:03:03.508Z,10.35
2023-05-05T02:04:03.457Z,10.37
2023-05-05T02:05:03.405Z,10.46
2023-05-05T02:06:03.426Z,10.81
2023-05-05T02:07:03.383Z,10.99
2023-05-05T02:08:03.353Z,10.97
2023-05-05T02:09:03.332Z,10.94
2023-05-05T02:10:03.310Z,10.96
2023-05-05T02:11:03.314Z,10.89
2023-05-05T02:12:33.784Z,10.82
2023-05-05T02:13:03.339Z,10.82
2023-05-05T02:14:03.324Z,10.82
2023-05-05T02:15:03.298Z,10.79
2023-05-05T02:16:03.295Z,10.75
2023-05-05T02:17:03.295Z,10.90
2023-05-05T02:18:03.281Z,10.93
2023-05-05T02:19:03.222Z,10.89
2023-05-05T02:20:03.253Z,10.84
2023-05-05T02:21:03.172Z,10.86
2023-05-05T02:22:03.154Z,11.05
2023-05-05T02:23:03.181Z,11.15
2023-05-05T02:24:03.140Z,11.18
2023-05-05T02:25:03.129Z,11.11
2023-05-05T02:26:03.137Z,11.08
2023-05-05T02:27:03.110Z,11.14
2023-05-05T02:28:03.071Z,11.23
2023-05-05T02:29:03.073Z,11.29
2023-05-05T02:30:03.087Z,11.23
2023-05-05T02:31:03.075Z,11.22
2023-05-05T02:32:03.041Z,11.23
2023-05-05T02:33:03.084Z,11.15
2023-05-05T02:34:03.030Z,11.05
2023-05-05T02:35:02.997Z,11.04
2023-05-05T02:36:02.976Z,11.19
2023-05-05T02:37:02.957Z,11.35
2023-05-05T02:38:02.987Z,11.36
2023-05-05T02:39:02.963Z,11.37
2023-05-05T02:40:02.947Z,11.35
2023-05-05T02:41:02.925Z,11.26
2023-05-05T02:42:02.940Z,11.17
2023-05-05T02:43:02.893Z,11.08
2023-05-05T02:44:02.880Z,11.05
2023-05-05T02:45:02.880Z,11.00
2023-05-05T02:46:02.933Z,10.93
2023-05-05T02:47:02.835Z,10.86
2023-05-05T02:48:02.884Z,10.81
2023-05-05T02:49:02.800Z,10.78
2023-05-05T02:50:02.818Z,10.68
2023-05-05T02:51:02.761Z,10.63
2023-05-05T02:52:02.770Z,10.56
2023-05-05T02:53:02.748Z,10.53
2023-05-05T02:54:02.840Z,10.41
2023-05-05T02:55:02.741Z,10.35
2023-05-05T02:56:02.752Z,10.33
2023-05-05T02:57:02.696Z,10.33
2023-05-05T02:58:02.692Z,10.33
2023-05-05T02:59:02.679Z,10.30
2023-05-05T03:00:02.672Z,10.28
2023-05-05T03:01:02.639Z,10.22
2023-05-05T03:02:02.621Z,10.16
2023-05-05T03:03:02.728Z,10.09
2023-05-05T03:04:02.645Z,10.05
2023-05-05T03:05:02.689Z,10.02
2023-05-05T03:06:02.612Z,10.02
2023-05-05T03:07:02.562Z,9.99
2023-05-05T03:08:02.660Z,9.98
2023-05-05T03:09:02.559Z,9.94
2023-05-05T03:10:02.516Z,9.87
2023-05-05T03:11:02.516Z,9.80
2023-05-05T03:12:02.511Z,9.82
2023-05-05T03:13:02.508Z,9.82
2023-05-05T03:14:02.496Z,9.82
2023-05-05T03:15:02.474Z,9.82
2023-05-05T03:16:02.479Z,9.80
2023-05-05T03:17:02.471Z,9.79
2023-05-05T03:18:02.479Z,9.80
2023-05-05T03:19:02.399Z,9.79
2023-05-05T03:20:04.354Z,9.79
2023-05-05T03:21:02.377Z,9.76
2023-05-05T03:22:05.132Z,9.72
2023-05-05T03:23:02.348Z,9.66
2023-05-05T03:24:02.329Z,9.65
2023-05-05T03:25:02.357Z,9.64
2023-05-05T03:26:02.346Z,9.61
2023-05-05T03:27:02.307Z,9.61
2023-05-05T03:28:02.277Z,9.61
2023-05-05T03:29:02.260Z,9.59
2023-05-05T03:30:02.284Z,9.59
2023-05-05T03:31:02.243Z,9.59
2023-05-05T03:32:02.281Z,9.58
2023-05-05T03:33:02.270Z,9.55
2023-05-05T03:34:02.241Z,9.51
2023-05-05T03:35:02.190Z,9.51
2023-05-05T03:36:02.195Z,9.51
2023-05-05T03:37:02.193Z,9.48
2023-05-05T03:38:02.147Z,9.47
2023-05-05T03:39:02.143Z,9.44
2023-05-05T03:40:02.123Z,9.44
2023-05-05T03:41:02.120Z,9.44
2023-05-05T03:42:02.090Z,9.43
2023-05-05T03:43:02.101Z,9.40
2023-05-05T03:44:02.099Z,9.39
2023-05-05T03:45:02.060Z,9.41
2023-05-05T03:46:02.059Z,9.41
2023-05-05T03:47:02.047Z,9.41
2023-05-05T03:48:02.101Z,9.44
2023-05-05T03:49:02.013Z,9.41
2023-05-05T03:50:01.993Z,9.36
2023-05-05T03:51:02.021Z,9.36
2023-05-05T03:52:01.962Z,9.36
2023-05-05T03:53:01.941Z,9.36
2023-05-05T03:54:02.002Z,9.34
2023-05-05T03:55:01.929Z,9.36
2023-05-05T03:56:01.930Z,9.36
2023-05-05T03:57:01.882Z,9.37
2023-05-05T03:58:01.912Z,9.36
2023-05-05T03:59:01.882Z,9.34
2023-05-05T04:00:01.858Z,9.34
2023-05-05T04:01:01.857Z,9.36
2023-05-05T04:02:01.835Z,9.37
2023-05-05T04:03:01.930Z,9.37
2023-05-05T04:04:01.842Z,9.39
2023-05-05T04:05:01.834Z,9.39
2023-05-05T04:06:01.756Z,9.41
2023-05-05T04:07:01.787Z,9.41
2023-05-05T04:08:01.740Z,9.44
2023-05-05T04:09:01.730Z,9.41
2023-05-05T04:10:01.713Z,9.43
2023-05-05T04:11:01.759Z,9.41
2023-05-05T04:12:01.728Z,9.43
2023-05-05T04:13:01.697Z,9.43
2023-05-05T04:14:01.661Z,9.43
2023-05-05T04:15:01.645Z,9.44
2023-05-05T04:16:01.731Z,9.48
2023-05-05T04:17:01.651Z,9.50
2023-05-05T04:18:01.612Z,9.54
2023-05-05T04:19:01.609Z,9.55
2023-05-05T04:20:01.655Z,9.59
2023-05-05T04:21:01.587Z,9.61
2023-05-05T04:22:01.557Z,9.62
2023-05-05T04:23:01.560Z,9.59
2023-05-05T04:24:01.552Z,9.59
2023-05-05T04:25:01.549Z,9.62
2023-05-05T04:26:01.518Z,9.64
2023-05-05T04:27:01.524Z,9.65
2023-05-05T04:28:01.494Z,9.68
2023-05-05T04:29:01.458Z,9.73
2023-05-05T04:30:01.450Z,9.76
2023-05-05T04:31:01.493Z,9.79
2023-05-05T04:32:01.441Z,9.82
2023-05-05T04:33:01.438Z,9.84
2023-05-05T04:34:01.400Z,9.83
2023-05-05T04:35:01.383Z,9.83
2023-05-05T04:36:01.373Z,9.86
2023-05-05T04:37:01.396Z,9.87
2023-05-05T04:38:01.332Z,9.91
2023-05-05T04:39:01.372Z,9.91
2023-05-05T04:40:01.318Z,9.92
2023-05-05T04:41:01.298Z,9.91
2023-05-05T04:42:01.318Z,9.92
2023-05-05T04:43:01.284Z,9.94
2023-05-05T04:44:01.262Z,9.91
2023-05-05T04:45:01.273Z,9.92
2023-05-05T04:46:01.272Z,9.94
2023-05-05T04:47:01.231Z,9.94
2023-05-05T04:48:01.319Z,9.95
2023-05-05T04:49:01.184Z,9.95
2023-05-05T04:50:01.208Z,9.95
2023-05-05T04:51:01.171Z,9.97
2023-05-05T04:52:01.164Z,9.94
2023-05-05T04:53:01.135Z,9.91
2023-05-05T04:54:01.142Z,9.91
2023-05-05T04:55:01.115Z,9.91
2023-05-05T04:56:01.152Z,9.92
2023-05-05T04:57:01.087Z,9.94
2023-05-05T04:58:01.094Z,9.94
2023-05-05T04:59:01.071Z,9.95
2023-05-05T05:00:01.078Z,9.98
2023-05-05T05:01:01.032Z,9.98
2023-05-05T05:02:01.080Z,10.02
2023-05-05T05:03:01.095Z,10.01
2023-05-05T05:04:01.033Z,10.01
2023-05-05T05:05:00.984Z,9.98
2023-05-05T05:06:00.988Z,9.98
2023-05-05T05:07:00.965Z,9.98
2023-05-05T05:08:00.975Z,9.98
2023-05-05T05:09:00.965Z,9.98
2023-05-05T05:10:00.967Z,9.99
2023-05-05T05:11:00.922Z,10.02
2023-05-05T05:12:00.891Z,10.04
2023-05-05T05:13:00.922Z,10.07
2023-05-05T05:14:00.858Z,10.09
2023-05-05T05:15:00.852Z,10.12
2023-05-05T05:16:00.858Z,10.15
2023-05-05T05:17:00.839Z,10.19
2023-05-05T05:18:00.844Z,10.19
2023-05-05T05:19:01.757Z,10.26
2023-05-05T05:20:00.772Z,10.30
2023-05-05T05:21:00.778Z,10.34
2023-05-05T05:22:00.770Z,10.38
2023-05-05T05:23:00.741Z,10.42
2023-05-05T05:24:00.745Z,10.49
2023-05-05T05:25:00.719Z,10.54
2023-05-05T05:26:00.694Z,10.60
2023-05-05T05:27:00.710Z,10.68
2023-05-05T05:28:09.441Z,10.71
2023-05-05T05:29:00.667Z,10.76
2023-05-05T05:30:00.653Z,10.86
2023-05-05T05:31:00.669Z,10.93
2023-05-05T05:32:00.640Z,10.99
2023-05-05T05:33:00.622Z,11.07
2023-05-05T05:34:00.594Z,11.15
2023-05-05T05:35:00.602Z,11.26
2023-05-05T05:36:00.583Z,11.32
2023-05-05T05:37:00.534Z,11.40
2023-05-05T05:38:00.549Z,11.51
2023-05-05T05:39:00.536Z,11.60
2023-05-05T05:40:00.594Z,11.65
2023-05-05T05:41:00.501Z,11.69
2023-05-05T05:42:00.473Z,11.73
2023-05-05T05:43:00.497Z,11.78
2023-05-05T05:44:00.481Z,11.80
2023-05-05T05:45:00.448Z,11.81
2023-05-05T05:46:00.452Z,11.83
2023-05-05T05:47:00.407Z,11.87
2023-05-05T05:48:00.443Z,11.91
2023-05-05T05:49:00.396Z,11.95
2023-05-05T05:50:00.369Z,12.02
2023-05-05T05:51:00.363Z,12.06
2023-05-05T05:52:00.334Z,12.10
2023-05-05T05:53:00.353Z,12.13
2023-05-05T05:54:00.347Z,12.21
2023-05-05T05:55:00.305Z,12.31
2023-05-05T05:56:00.296Z,12.39
2023-05-05T05:57:00.283Z,12.46
2023-05-05T05:58:00.289Z,12.55
2023-05-05T05:59:00.254Z,12.65
2023-05-05T06:00:01.995Z,12.75
2023-05-05T06:01:00.239Z,12.82
2023-05-05T06:02:00.323Z,12.87
2023-05-05T06:03:00.538Z,12.93
2023-05-05T06:04:00.293Z,12.97
2023-05-05T06:05:00.191Z,13.00
2023-05-05T06:06:00.190Z,13.04
2023-05-05T06:07:00.176Z,13.09
2023-05-05T06:08:00.135Z,13.11
2023-05-05T06:09:00.141Z,13.13
2023-05-05T06:10:04.817Z,13.18
2023-05-05T06:11:00.132Z,13.20
2023-05-05T06:12:00.066Z,13.20
2023-05-05T06:13:00.140Z,13.22
2023-05-05T06:14:00.196Z,13.22
2023-05-05T06:15:00.046Z,13.23
2023-05-05T06:16:00.072Z,13.25
2023-05-05T06:17:00.020Z,13.27
2023-05-05T06:18:00.062Z,13.28
2023-05-05T06:18:59.981Z,13.28
2023-05-05T06:19:59.977Z,13.31
2023-05-05T06:20:59.950Z,13.35
2023-05-05T06:22:00.039Z,13.38
2023-05-05T06:23:00.154Z,13.39
2023-05-05T06:23:59.916Z,13.44
2023-05-05T06:24:59.915Z,13.46
2023-05-05T06:26:00.033Z,13.50
2023-05-05T06:26:59.869Z,13.53
2023-05-05T06:27:59.889Z,13.54
2023-05-05T06:28:59.884Z,13.56
2023-05-05T06:29:59.834Z,13.59
2023-05-05T06:30:59.871Z,13.62
2023-05-05T06:31:59.819Z,13.65
2023-05-05T06:32:59.888Z,13.68
2023-05-05T06:33:59.819Z,13.70
2023-05-05T06:34:59.792Z,13.72
2023-05-05T06:35:59.762Z,13.77
2023-05-05T06:36:59.736Z,13.79
2023-05-05T06:37:59.732Z,13.85
2023-05-05T06:38:59.746Z,13.93
2023-05-05T06:39:59.699Z,13.99
2023-05-05T06:40:59.699Z,14.07
2023-05-05T06:41:59.678Z,14.14
2023-05-05T06:42:59.653Z,14.15
2023-05-05T06:43:59.634Z,14.18
2023-05-05T06:44:59.669Z,14.23
2023-05-05T06:45:59.621Z,14.25
2023-05-05T06:46:59.722Z,14.26
2023-05-05T06:47:59.591Z,14.26
2023-05-05T06:50:27.184Z,14.26
2023-05-05T06:50:32.531Z,14.29
2023-05-05T06:51:32.512Z,14.30
2023-05-05T06:52:32.511Z,14.29
2023-05-05T06:53:32.505Z,14.30
2023-05-05T06:54:32.519Z,14.35
2023-05-05T06:55:32.473Z,14.37
2023-05-05T06:56:32.443Z,14.40
2023-05-05T06:57:32.456Z,14.40
2023-05-05T06:58:32.432Z,14.43
2023-05-05T06:59:32.461Z,14.45
2023-05-05T07:00:32.481Z,14.45
2023-05-05T07:01:32.372Z,14.47
2023-05-05T07:02:32.413Z,14.50
2023-05-05T07:03:32.409Z,14.51
2023-05-05T07:04:32.356Z,14.53
2023-05-05T07:05:32.367Z,14.55
2023-05-05T07:06:32.393Z,14.58
2023-05-05T07:07:32.318Z,14.59
2023-05-05T07:08:32.305Z,14.60
2023-05-05T07:09:32.327Z,14.62
2023-05-05T07:10:32.265Z,14.62
2023-05-05T07:11:32.279Z,14.63
2023-05-05T07:12:32.281Z,14.65
2023-05-05T07:13:32.237Z,14.63
2023-05-05T07:14:32.245Z,14.68
2023-05-05T07:15:32.222Z,14.72
2023-05-05T07:16:32.216Z,14.78
2023-05-05T07:17:32.258Z,14.82
2023-05-05T07:18:32.160Z,14.89
2023-05-05T07:19:32.170Z,14.97
2023-05-05T07:20:32.171Z,15.04
2023-05-05T07:21:32.157Z,15.09
2023-05-05T07:22:32.105Z,15.14
2023-05-05T07:23:32.169Z,15.21
2023-05-05T07:24:32.076Z,15.22
2023-05-05T07:25:32.054Z,15.29
2023-05-05T07:26:32.073Z,15.35
2023-05-05T07:27:32.092Z,15.40
2023-05-05T07:28:32.102Z,15.46
2023-05-05T07:29:32.021Z,15.51
2023-05-05T07:30:31.996Z,15.55
2023-05-05T07:31:32.024Z,15.62
2023-05-05T07:32:32.046Z,15.75
2023-05-05T07:33:32.024Z,15.83
2023-05-05T07:34:31.950Z,15.92
2023-05-05T07:35:31.937Z,16.00
2023-05-05T07:36:31.923Z,16.05
2023-05-05T07:37:31.906Z,16.10
2023-05-05T07:38:31.919Z,16.20
2023-05-05T07:39:31.892Z,16.26
2023-05-05T07:40:31.890Z,16.33
2023-05-05T07:41:31.870Z,16.39
2023-05-05T07:42:31.865Z,16.47
2023-05-05T07:43:31.820Z,16.54
2023-05-05T07:44:31.841Z,16.58
2023-05-05T07:45:31.797Z,16.64
2023-05-05T07:46:31.824Z,16.68
2023-05-05T07:47:31.852Z,16.74
2023-05-05T07:48:31.748Z,16.84
2023-05-05T07:49:31.793Z,16.91
2023-05-05T07:51:59.649Z,16.97
2023-05-05T07:52:05.030Z,17.09
2023-05-05T07:53:13.727Z,17.20
2023-05-05T07:54:05.051Z,17.29
2023-05-05T07:55:04.989Z,17.36
2023-05-05T07:56:04.946Z,17.42
2023-05-05T07:57:04.929Z,17.51
2023-05-05T07:58:04.896Z,17.57
2023-05-05T07:59:04.926Z,17.67
2023-05-05T08:00:04.892Z,17.74
2023-05-05T08:01:04.885Z,17.85
2023-05-05T08:02:04.856Z,17.92
2023-05-05T08:03:04.908Z,18.00
2023-05-05T08:04:04.882Z,18.05
2023-05-05T08:05:05.067Z,18.08
2023-05-05T08:06:04.856Z,18.15
2023-05-05T08:07:04.788Z,18.22
2023-05-05T08:08:04.790Z,18.29
2023-05-05T08:09:04.786Z,18.37
2023-05-05T08:10:04.810Z,18.43
2023-05-05T08:11:04.735Z,18.50
2023-05-05T08:12:04.716Z,18.59
2023-05-05T08:13:04.771Z,18.65
2023-05-05T08:14:04.694Z,18.73
2023-05-05T08:15:04.736Z,18.75
2023-05-05T08:16:04.726Z,18.80
2023-05-05T08:17:04.651Z,18.81
2023-05-05T08:18:04.645Z,18.88
2023-05-05T08:19:09.743Z,18.90
2023-05-05T08:20:04.621Z,18.98
2023-05-05T08:21:04.625Z,19.04
2023-05-05T08:22:04.601Z,19.11
2023-05-05T08:23:04.574Z,19.16
2023-05-05T08:24:04.553Z,19.26
2023-05-05T08:25:04.553Z,19.34
2023-05-05T08:26:04.583Z,19.40
2023-05-05T08:27:04.533Z,19.47
2023-05-05T08:28:04.500Z,19.54
2023-05-05T08:29:04.499Z,19.63
2023-05-05T08:30:04.501Z,19.67
2023-05-05T08:31:04.574Z,19.73
2023-05-05T08:32:04.446Z,19.79
2023-05-05T08:33:04.501Z,19.85
2023-05-05T08:34:04.466Z,19.92
2023-05-05T08:35:04.419Z,20.02
2023-05-05T08:36:04.404Z,20.13
2023-05-05T08:37:04.420Z,20.28
2023-05-05T08:38:04.444Z,20.36
2023-05-05T08:39:04.356Z,20.43
2023-05-05T08:40:04.361Z,20.48
2023-05-05T08:41:04.361Z,20.55
2023-05-05T08:42:04.352Z,20.58
2023-05-05T08:43:04.311Z,20.65
2023-05-05T08:44:04.337Z,20.70
2023-05-05T08:45:04.311Z,20.74
2023-05-05T08:46:04.317Z,20.78
2023-05-05T08:47:04.375Z,20.82
2023-05-05T08:48:04.262Z,20.88
2023-05-05T08:49:04.265Z,20.90
2023-05-05T08:50:04.211Z,20.92
2023-05-05T08:51:05.520Z,20.93
2023-05-05T08:52:04.209Z,20.96
2023-05-05T08:53:04.262Z,20.99
2023-05-05T08:54:04.175Z,21.00
2023-05-05T08:55:04.150Z,21.05
2023-05-05T08:56:04.118Z,21.06
2023-05-05T08:57:04.139Z,21.09
2023-05-05T08:58:04.149Z,21.15
2023-05-05T08:59:04.091Z,21.18
2023-05-05T09:00:04.075Z,21.22
2023-05-05T09:01:04.133Z,21.25
2023-05-05T09:02:04.107Z,21.29
2023-05-05T09:03:04.352Z,21.32
2023-05-05T09:04:04.057Z,21.35
2023-05-05T09:05:04.002Z,21.35
2023-05-05T09:06:04.054Z,21.40
2023-05-05T09:07:04.060Z,21.45
2023-05-05T09:08:04.012Z,21.52
2023-05-05T09:09:03.936Z,21.54
2023-05-05T09:10:03.996Z,21.55
2023-05-05T09:11:03.995Z,21.55
2023-05-05T09:12:03.906Z,21.57
2023-05-05T09:13:03.986Z,21.58
2023-05-05T09:14:03.907Z,21.61
2023-05-05T09:15:03.869Z,21.66
2023-05-05T09:16:03.864Z,21.70
2023-05-05T09:17:03.871Z,21.76
2023-05-05T09:18:03.929Z,21.85
2023-05-05T09:19:03.855Z,21.95
2023-05-05T09:20:03.818Z,22.04
2023-05-05T09:21:03.798Z,22.11
2023-05-05T09:22:03.789Z,22.15
2023-05-05T09:23:03.800Z,22.23
2023-05-05T09:24:08.168Z,22.30
2023-05-05T09:25:03.744Z,22.36
2023-05-05T09:26:03.734Z,22.44
2023-05-05T09:27:03.760Z,22.51
2023-05-05T09:28:03.707Z,22.55
2023-05-05T09:29:03.684Z,22.57
2023-05-05T09:30:03.713Z,22.59
2023-05-05T09:31:03.762Z,22.59
2023-05-05T09:32:03.689Z,22.62
2023-05-05T09:33:03.710Z,22.62
2023-05-05T09:34:03.628Z,22.63
2023-05-05T09:35:03.663Z,22.65
2023-05-05T09:36:03.640Z,22.65
2023-05-05T09:37:03.596Z,22.69
2023-05-05T09:38:03.574Z,22.75
2023-05-05T09:39:03.601Z,22.87
2023-05-05T09:40:03.552Z,23.00
2023-05-05T09:41:03.536Z,23.15
2023-05-05T09:42:03.580Z,23.27
2023-05-05T09:43:03.527Z,23.37
2023-05-05T09:44:03.539Z,23.48
2023-05-05T09:45:03.519Z,23.55
2023-05-05T09:46:03.473Z,23.59
2023-05-05T09:47:07.211Z,23.69
2023-05-05T09:48:03.500Z,23.81
2023-05-05T09:49:03.432Z,23.87
2023-05-05T09:50:03.450Z,23.93
2023-05-05T09:51:03.394Z,24.03
2023-05-05T09:52:03.409Z,24.11
2023-05-05T09:53:03.403Z,24.18
2023-05-05T09:54:03.384Z,24.24
2023-05-05T09:55:03.391Z,24.32
2023-05-05T09:56:03.359Z,24.39
2023-05-05T09:57:03.440Z,24.42
2023-05-05T09:58:03.355Z,24.43
2023-05-05T09:59:03.281Z,24.36
2023-05-05T10:00:03.312Z,24.36
2023-05-05T10:01:03.257Z,24.35
2023-05-05T10:02:03.281Z,24.32
2023-05-05T10:03:03.411Z,24.21
2023-05-05T10:04:03.218Z,24.10
2023-05-05T10:05:03.239Z,24.03
2023-05-05T10:06:03.194Z,24.03
2023-05-05T10:07:03.187Z,24.08
2023-05-05T10:08:03.188Z,24.13
2023-05-05T10:09:03.166Z,24.20
2023-05-05T10:10:03.145Z,24.28
2023-05-05T10:11:03.121Z,24.35
2023-05-05T10:12:03.163Z,24.42
2023-05-05T10:13:03.150Z,24.55
2023-05-05T10:14:03.082Z,24.65
2023-05-05T10:15:03.117Z,24.73
2023-05-05T10:16:03.071Z,24.84
2023-05-05T10:17:03.049Z,24.91
2023-05-05T10:18:07.676Z,25.01
2023-05-05T10:19:03.017Z,25.10
2023-05-05T10:20:03.032Z,25.22
2023-05-05T10:21:03.019Z,25.31
2023-05-05T10:22:03.032Z,25.44
2023-05-05T10:23:02.969Z,25.53
2023-05-05T10:24:02.958Z,25.60
2023-05-05T10:25:02.946Z,25.62
2023-05-05T10:26:02.961Z,25.65
2023-05-05T10:27:02.945Z,25.70
2023-05-05T10:28:02.911Z,25.72
2023-05-05T10:29:02.923Z,25.66
2023-05-05T10:30:02.901Z,25.62
2023-05-05T10:31:07.663Z,25.70
2023-05-05T10:32:10.281Z,25.83
2023-05-05T10:33:22.211Z,25.99
2023-05-05T10:34:03.031Z,26.06
2023-05-05T10:35:02.820Z,26.18
2023-05-05T10:36:02.828Z,26.15
2023-05-05T10:37:02.806Z,26.13
2023-05-05T10:38:02.855Z,26.07
2023-05-05T10:39:02.796Z,25.88
2023-05-05T10:40:02.784Z,25.73
2023-05-05T10:41:02.741Z,25.66
2023-05-05T10:42:02.775Z,25.55
2023-05-05T10:43:02.744Z,25.38
2023-05-05T10:44:04.430Z,25.25
2023-05-05T10:45:02.702Z,25.23
2023-05-05T10:46:02.734Z,25.16
2023-05-05T10:47:02.659Z,25.14
2023-05-05T10:48:02.717Z,25.18
2023-05-05T10:49:02.641Z,25.31
2023-05-05T10:50:02.627Z,25.50
2023-05-05T10:51:02.727Z,25.65
2023-05-05T10:52:02.618Z,25.70
2023-05-05T10:53:02.691Z,25.75
2023-05-05T10:54:02.595Z,25.73
2023-05-05T10:55:02.566Z,25.68
2023-05-05T10:56:02.572Z,25.63
2023-05-05T10:57:02.566Z,25.58
2023-05-05T10:58:02.516Z,25.48
2023-05-05T10:59:02.520Z,25.43
2023-05-05T11:00:02.500Z,25.35
2023-05-05T11:01:02.628Z,25.32
2023-05-05T11:02:02.480Z,25.28
2023-05-05T11:03:02.508Z,25.17
2023-05-05T11:04:02.512Z,25.08
2023-05-05T11:05:02.481Z,25.04
2023-05-05T11:06:02.415Z,25.04
2023-05-05T11:07:02.394Z,24.98
2023-05-05T11:08:02.483Z,24.92
2023-05-05T11:09:02.369Z,24.80
2023-05-05T11:10:02.382Z,24.76
2023-05-05T11:11:02.380Z,24.73
2023-05-05T11:12:02.363Z,24.73
2023-05-05T11:13:02.441Z,24.68
2023-05-05T11:14:02.324Z,24.60
2023-05-05T11:15:02.301Z,24.60
2023-05-05T11:16:02.285Z,24.58
2023-05-05T11:17:02.419Z,24.55
2023-05-05T11:18:05.880Z,24.58
2023-05-05T11:19:02.269Z,24.63
2023-05-05T11:20:02.238Z,24.63
2023-05-05T11:21:02.206Z,24.69
2023-05-05T11:22:02.198Z,24.86
2023-05-05T11:23:02.270Z,25.06
2023-05-05T11:24:02.181Z,25.22
2023-05-05T11:25:02.173Z,25.29
2023-05-05T11:26:02.170Z,25.36
2023-05-05T11:27:02.131Z,25.38
2023-05-05T11:28:02.156Z,25.41
2023-05-05T11:29:02.120Z,25.32
2023-05-05T11:30:02.099Z,25.31
2023-05-05T11:31:02.148Z,25.21
2023-05-05T11:32:02.090Z,25.17
2023-05-05T11:33:02.079Z,25.16
2023-05-05T11:34:02.054Z,25.10
2023-05-05T11:35:02.028Z,25.04
2023-05-05T11:36:05.082Z,25.06
2023-05-05T11:37:02.041Z,25.22
2023-05-05T11:38:01.992Z,25.32
2023-05-05T11:39:02.019Z,25.53
2023-05-05T11:40:02.027Z,25.75
2023-05-05T11:41:01.945Z,25.88
2023-05-05T11:42:06.598Z,26.00
2023-05-05T11:43:01.944Z,26.05
2023-05-05T11:44:01.939Z,26.02
2023-05-05T11:45:01.909Z,26.06
2023-05-05T11:46:01.899Z,26.05
2023-05-05T11:47:04.720Z,26.02
2023-05-05T11:48:01.884Z,26.03
2023-05-05T11:49:01.846Z,26.15
2023-05-05T11:50:01.854Z,26.15
2023-05-05T11:51:01.813Z,26.09
2023-05-05T11:52:01.848Z,26.00
2023-05-05T11:53:01.795Z,25.91
2023-05-05T11:54:01.775Z,25.84
2023-05-05T11:55:01.829Z,25.75
2023-05-05T11:56:01.742Z,25.69
2023-05-05T11:57:01.784Z,25.66
2023-05-05T11:59:29.221Z,25.69
2023-05-05T11:59:34.574Z,25.81
2023-05-05T12:00:34.616Z,25.90
2023-05-05T12:01:34.571Z,25.96
2023-05-05T12:02:34.636Z,26.05
2023-05-05T12:03:34.667Z,26.13
2023-05-05T12:04:34.520Z,26.19
2023-05-05T12:05:36.671Z,26.29
2023-05-05T12:06:34.540Z,26.41
2023-05-05T12:07:34.468Z,26.52
2023-05-05T12:08:34.456Z,26.59
2023-05-05T12:09:34.456Z,26.59
2023-05-05T12:10:34.430Z,26.59
2023-05-05T12:11:34.434Z,26.58
2023-05-05T12:12:34.429Z,26.60
2023-05-05T12:13:34.488Z,26.66
2023-05-05T12:14:34.386Z,26.74
2023-05-05T12:15:34.366Z,26.84
2023-05-05T12:16:34.382Z,26.88
2023-05-05T12:17:34.366Z,27.00
2023-05-05T12:18:34.350Z,27.12
2023-05-05T12:19:34.321Z,27.22
2023-05-05T12:20:34.330Z,27.32
2023-05-05T12:21:34.301Z,27.42
2023-05-05T12:22:34.353Z,27.48
2023-05-05T12:23:34.311Z,27.54
2023-05-05T12:24:34.239Z,27.60
2023-05-05T12:25:34.245Z,27.70
2023-05-05T12:26:34.224Z,27.77
2023-05-05T12:27:34.203Z,27.85
2023-05-05T12:28:34.226Z,27.87
2023-05-05T12:29:34.179Z,27.92
2023-05-05T12:30:34.195Z,27.96
2023-05-05T12:31:34.188Z,28.04
2023-05-05T12:32:34.135Z,28.07
2023-05-05T12:33:34.147Z,28.10
2023-05-05T12:34:34.207Z,28.12
2023-05-05T12:35:34.109Z,28.15
2023-05-05T12:36:34.090Z,28.19
2023-05-05T12:37:34.090Z,28.23
2023-05-05T12:38:34.096Z,28.26
2023-05-05T12:39:34.069Z,28.27
2023-05-05T12:40:34.027Z,28.37
2023-05-05T12:41:34.016Z,28.45
2023-05-05T12:42:34.016Z,28.57
2023-05-05T12:43:39.369Z,28.60
2023-05-05T12:44:34.013Z,28.66
2023-05-05T12:45:33.970Z,28.62
2023-05-05T12:46:34.043Z,28.69
2023-05-05T12:47:34.008Z,28.75
2023-05-05T12:50:51.429Z,28.78
2023-05-05T12:51:52.433Z,28.63
2023-05-05T12:52:52.382Z,28.52
2023-05-05T12:53:52.394Z,28.49
2023-05-05T12:54:54.644Z,28.59
2023-05-05T12:55:52.356Z,28.64
2023-05-05T12:56:52.361Z,28.79
2023-05-05T12:57:52.356Z,28.89
2023-05-05T12:58:52.323Z,29.05
2023-05-05T12:59:52.297Z,29.07